Time;durP1;ratioP1;P1;durP2;ratioP2;P2;SDS_P1;SDS_P2;PMS_P1;PMS_P2;Temp;Humidity;BMP_temperature;BMP_pressure;BME280_temperature;BME280_humidity;BME280_pressure;Samples;Min_cycle;Max_cycle;Signal;HPM_P1;HPM_P2
2021/01/25 00:00:27;;;;;;;;;;;0.00;99.90;;;;;;5013632;28;19921;-66
2021/01/25 00:02:53;;;;;;;;;;;0.00;99.90;;;;;;5013641;28;19968;-66
2021/01/25 00:05:19;;;;;;;;;;;0.00;99.90;;;;;;5014459;28;19921;-66
2021/01/25 00:07:46;;;;;;;;;;;0.00;99.90;;;;;;5013663;28;19921;-66
2021/01/25 00:10:13;;;;;;;;;;;0.00;99.90;;;;;;5014334;28;19926;-64
2021/01/25 00:12:39;;;;;;;;;;;0.00;1.00;;;;;;5014344;28;19925;-66
2021/01/25 00:15:06;;;;;;;;;;;-0.10;1.00;;;;;;5013429;28;19931;-64
2021/01/25 00:17:32;;;;;;;;;;;-0.10;1.00;;;;;;5013673;28;19921;-65
2021/01/25 00:19:58;;;;;;;;;;;0.00;1.00;;;;;;5014331;28;19925;-65
2021/01/25 00:22:25;;;;;;;;;;;0.00;1.00;;;;;;5016506;28;19927;-65
2021/01/25 00:24:52;;;;;;;;;;;0.00;1.00;;;;;;5015374;28;20064;-65
2021/01/25 00:27:18;;;;;;;;;;;0.00;1.00;;;;;;5014641;28;19922;-66
2021/01/25 00:29:44;;;;;;;;;;;0.00;1.00;;;;;;5013396;28;19968;-65
2021/01/25 00:32:10;;;;;;;;;;;0.00;1.00;;;;;;5013369;28;19921;-65
2021/01/25 00:34:38;;;;;;;;;;;0.00;1.00;;;;;;5013315;28;19928;-65
2021/01/25 00:37:04;;;;;;;;;;;0.00;1.00;;;;;;5013161;28;19928;-65
2021/01/25 00:39:30;;;;;;;;;;;0.00;1.00;;;;;;5014180;28;19921;-65
2021/01/25 00:41:57;;;;;;;;;;;0.00;1.00;;;;;;5013463;28;19921;-65
2021/01/25 00:44:23;;;;;;;;;;;0.00;1.00;;;;;;5013633;28;20374;-65
2021/01/25 00:46:49;;;;;;;;;;;0.00;1.00;;;;;;5013152;28;19921;-64
2021/01/25 00:49:15;;;;;;;;;;;0.00;1.00;;;;;;5013138;28;19979;-66
2021/01/25 00:51:42;;;;;;;;;;;0.10;1.00;;;;;;5012452;28;19921;-65
2021/01/25 00:54:08;;;;;;;;;;;0.10;1.00;;;;;;5012701;28;20301;-65
2021/01/25 00:56:34;;;;;;;;;;;0.10;1.00;;;;;;5012793;28;19925;-65
2021/01/25 00:59:01;;;;;;;;;;;0.10;1.00;;;;;;5012217;28;19928;-65
2021/01/25 01:01:27;;;;;;;;;;;0.10;1.00;;;;;;5012582;28;20401;-65
2021/01/25 01:03:53;;;;;;;;;;;0.20;1.00;;;;;;5012815;28;19925;-65
2021/01/25 01:06:19;;;;;;;;;;;0.20;99.90;;;;;;5012847;28;19922;-65
2021/01/25 01:08:45;;;;;;;;;;;0.20;99.90;;;;;;5012355;28;19995;-65
2021/01/25 01:11:11;;;;;;;;;;;0.20;99.90;;;;;;5012507;28;19975;-64
2021/01/25 01:13:37;;;;;;;;;;;0.20;99.90;;;;;;5012254;28;20413;-65
2021/01/25 01:16:04;;;;;;;;;;;0.20;99.90;;;;;;5012484;28;19921;-65
2021/01/25 01:18:30;;;;;;;;;;;0.20;99.90;;;;;;5012304;28;19991;-64
2021/01/25 01:20:56;;;;;;;;;;;0.20;99.90;;;;;;5012690;28;19929;-65
2021/01/25 01:23:22;;;;;;;;;;;0.20;99.90;;;;;;5012399;28;20325;-65
2021/01/25 01:25:48;;;;;;;;;;;0.30;99.90;;;;;;5013701;28;19922;-65
2021/01/25 01:28:14;;;;;;;;;;;0.30;99.90;;;;;;5016087;28;19921;-65
2021/01/25 01:30:40;;;;;;;;;;;0.30;99.90;;;;;;5014686;28;20333;-65
2021/01/25 01:33:07;;;;;;;;;;;0.30;99.90;;;;;;5014796;28;19972;-65
2021/01/25 01:35:33;;;;;;;;;;;0.30;1.00;;;;;;5015658;28;19921;-65
2021/01/25 01:37:59;;;;;;;;;;;0.40;1.00;;;;;;5013585;28;19968;-65
2021/01/25 01:40:25;;;;;;;;;;;0.30;1.00;;;;;;5012414;28;19932;-65
2021/01/25 01:42:51;;;;;;;;;;;0.40;1.00;;;;;;5012453;28;19921;-64
2021/01/25 01:45:17;;;;;;;;;;;0.40;1.00;;;;;;5012760;28;20302;-65
2021/01/25 01:47:43;;;;;;;;;;;0.40;1.00;;;;;;5012141;28;19921;-65
2021/01/25 01:50:12;;;;;;;;;;;0.40;1.00;;;;;;5012657;28;19929;-65
2021/01/25 01:52:38;;;;;;;;;;;0.40;1.00;;;;;;5012193;28;19921;-65
2021/01/25 01:55:05;;;;;;;;;;;0.40;1.00;;;;;;5012558;28;19929;-65
2021/01/25 01:57:32;;;;;;;;;;;0.40;1.00;;;;;;5012179;28;20329;-65
2021/01/25 01:59:58;;;;;;;;;;;0.40;1.00;;;;;;5012178;28;20008;-65
2021/01/25 02:02:24;;;;;;;;;;;0.30;1.00;;;;;;5012620;28;19948;-65
2021/01/25 02:04:50;;;;;;;;;;;0.40;1.00;;;;;;5012367;28;20378;-65
2021/01/25 02:07:18;;;;;;;;;;;0.40;1.00;;;;;;5011705;28;19930;-65
2021/01/25 02:09:46;;;;;;;;;;;0.40;1.00;;;;;;5012121;28;19922;-65
2021/01/25 02:12:12;;;;;;;;;;;0.40;1.00;;;;;;5015552;28;19929;-65
2021/01/25 02:14:39;;;;;;;;;;;0.40;1.00;;;;;;5015623;28;19976;-65
2021/01/25 02:17:05;;;;;;;;;;;0.40;1.00;;;;;;5015227;28;19925;-66
2021/01/25 02:19:35;;;;;;;;;;;0.40;1.00;;;;;;5016268;28;20393;-65
2021/01/25 02:22:06;;;;;;;;;;;0.40;1.00;;;;;;5015741;28;19929;-65
2021/01/25 02:24:36;;;;;;;;;;;0.40;1.00;;;;;;5015405;28;20405;-65
2021/01/25 02:27:09;;;;;;;;;;;0.50;1.00;;;;;;5015055;28;19922;-65
2021/01/25 02:29:36;;;;;;;;;;;0.40;1.00;;;;;;5015093;28;20305;-65
2021/01/25 02:32:02;;;;;;;;;;;0.40;1.00;;;;;;5015192;28;19928;-66
2021/01/25 02:34:29;;;;;;;;;;;0.40;1.00;;;;;;5015237;28;19929;-66
2021/01/25 02:36:56;;;;;;;;;;;0.40;1.00;;;;;;5014752;28;20374;-64
2021/01/25 02:39:22;;;;;;;;;;;0.40;1.00;;;;;;5015132;28;19921;-66
2021/01/25 02:41:48;;;;;;;;;;;0.40;1.00;;;;;;5014853;28;19928;-66
2021/01/25 02:44:15;;;;;;;;;;;0.40;1.00;;;;;;5015009;28;20424;-65
2021/01/25 02:46:44;;;;;;;;;;;0.40;1.00;;;;;;5014787;28;19976;-65
2021/01/25 02:49:10;;;;;;;;;;;0.40;1.00;;;;;;5014650;28;19921;-65
2021/01/25 02:51:36;;;;;;;;;;;0.40;84.50;;;;;;5014301;28;19922;-66
2021/01/25 02:54:02;;;;;;;;;;;0.40;99.90;;;;;;5014796;28;20293;-64
2021/01/25 02:56:28;;;;;;;;;;;0.40;99.90;;;;;;5014448;28;20386;-65
2021/01/25 02:58:54;;;;;;;;;;;0.40;99.90;;;;;;5014528;28;19948;-64
2021/01/25 03:01:21;;;;;;;;;;;0.40;99.90;;;;;;5014552;28;19921;-66
2021/01/25 03:03:50;;;;;;;;;;;0.40;99.90;;;;;;5014750;28;20382;-65
2021/01/25 03:06:16;;;;;;;;;;;0.30;99.90;;;;;;5014640;28;19925;-65
2021/01/25 03:08:44;;;;;;;;;;;0.30;99.90;;;;;;5014056;28;20275;-65
2021/01/25 03:11:10;;;;;;;;;;;0.20;1.00;;;;;;5014486;28;19921;-66
2021/01/25 03:13:36;;;;;;;;;;;0.20;1.00;;;;;;5014289;28;19952;-65
2021/01/25 03:16:03;;;;;;;;;;;0.20;1.00;;;;;;5014352;28;19921;-66
2021/01/25 03:18:29;;;;;;;;;;;0.20;1.00;;;;;;5013665;28;20289;-65
2021/01/25 03:20:56;;;;;;;;;;;0.30;99.90;;;;;;5013884;28;19926;-65
2021/01/25 03:23:22;;;;;;;;;;;0.40;99.90;;;;;;5013681;28;19921;-65
2021/01/25 03:25:48;;;;;;;;;;;0.40;99.90;;;;;;5014413;28;19928;-66
2021/01/25 03:28:14;;;;;;;;;;;0.40;99.90;;;;;;5013742;28;19921;-65
2021/01/25 03:30:40;;;;;;;;;;;0.40;99.90;;;;;;5013641;28;20305;-65
2021/01/25 03:33:06;;;;;;;;;;;0.50;99.90;;;;;;5013888;28;19929;-65
2021/01/25 03:35:32;;;;;;;;;;;0.60;46.20;;;;;;5013863;28;20338;-65
2021/01/25 03:37:59;;;;;;;;;;;0.50;1.00;;;;;;5013722;28;19921;-66
2021/01/25 03:40:25;;;;;;;;;;;0.60;1.00;;;;;;5013542;28;20448;-65
2021/01/25 03:42:51;;;;;;;;;;;0.60;1.00;;;;;;5013989;28;20430;-66
2021/01/25 03:45:17;;;;;;;;;;;0.60;1.00;;;;;;5013879;28;19922;-65
2021/01/25 03:47:43;;;;;;;;;;;0.70;1.00;;;;;;5013085;28;19921;-65
2021/01/25 03:50:10;;;;;;;;;;;0.60;1.00;;;;;;5013794;28;19921;-66
2021/01/25 03:52:36;;;;;;;;;;;0.70;1.00;;;;;;5013475;28;19921;-64
2021/01/25 03:55:03;;;;;;;;;;;0.60;1.00;;;;;;5013675;28;19943;-65
2021/01/25 03:57:29;;;;;;;;;;;0.70;99.90;;;;;;5013191;28;19921;-66
2021/01/25 03:59:55;;;;;;;;;;;0.60;1.00;;;;;;5013411;28;19932;-65
2021/01/25 04:02:21;;;;;;;;;;;0.50;1.00;;;;;;5013196;28;19968;-65
2021/01/25 04:04:47;;;;;;;;;;;0.50;5.10;;;;;;5013179;28;19975;-65
2021/01/25 04:07:13;;;;;;;;;;;0.40;63.50;;;;;;5013058;28;19925;-66
2021/01/25 04:09:39;;;;;;;;;;;0.40;99.90;;;;;;5013442;28;19928;-64
2021/01/25 04:12:07;;;;;;;;;;;0.30;99.90;;;;;;5013346;28;19933;-65
2021/01/25 04:14:33;;;;;;;;;;;0.20;99.90;;;;;;5012950;28;19983;-65
2021/01/25 04:16:59;;;;;;;;;;;0.30;1.00;;;;;;5012767;28;19922;-65
2021/01/25 04:19:25;;;;;;;;;;;0.30;1.00;;;;;;5012788;28;19948;-65
2021/01/25 04:21:51;;;;;;;;;;;0.30;1.00;;;;;;5013146;28;19975;-65
2021/01/25 04:24:17;;;;;;;;;;;0.30;1.00;;;;;;5013120;28;19983;-65
2021/01/25 04:26:43;;;;;;;;;;;0.30;1.00;;;;;;5012969;28;20365;-64
2021/01/25 04:29:10;;;;;;;;;;;0.40;1.00;;;;;;5012657;28;19925;-65
2021/01/25 04:31:36;;;;;;;;;;;0.30;1.00;;;;;;5012661;28;19922;-65
2021/01/25 04:34:02;;;;;;;;;;;0.30;1.00;;;;;;5012693;28;20538;-65
2021/01/25 04:36:28;;;;;;;;;;;0.30;99.90;;;;;;5013065;28;19967;-65
2021/01/25 04:38:54;;;;;;;;;;;0.30;99.90;;;;;;5012456;28;19925;-65
2021/01/25 04:41:21;;;;;;;;;;;0.20;99.90;;;;;;5012826;28;19922;-65
2021/01/25 04:43:47;;;;;;;;;;;0.30;99.90;;;;;;5012870;28;19922;-64
2021/01/25 04:46:14;;;;;;;;;;;0.30;99.90;;;;;;5012714;28;19925;-65
2021/01/25 04:48:44;;;;;;;;;;;0.20;99.90;;;;;;5012606;28;19959;-65
2021/01/25 04:51:10;;;;;;;;;;;0.10;1.00;;;;;;5012476;28;20390;-65
2021/01/25 04:53:37;;;;;;;;;;;0.10;5.70;;;;;;5012464;28;19921;-66
2021/01/25 04:56:03;;;;;;;;;;;0.10;68.70;;;;;;5012730;28;19921;-64
2021/01/25 04:58:29;;;;;;;;;;;0.00;99.90;;;;;;5012163;28;19929;-64
2021/01/25 05:00:56;;;;;;;;;;;0.10;99.90;;;;;;5012208;28;19925;-65
2021/01/25 05:03:22;;;;;;;;;;;0.10;99.90;;;;;;5012599;28;19921;-65
2021/01/25 05:05:48;;;;;;;;;;;0.10;99.90;;;;;;5012558;28;19925;-65
2021/01/25 05:08:14;;;;;;;;;;;0.10;99.90;;;;;;5012573;28;19925;-65
2021/01/25 05:10:41;;;;;;;;;;;0.10;99.90;;;;;;5012291;28;20382;-65
2021/01/25 05:13:07;;;;;;;;;;;0.00;99.90;;;;;;5012273;28;19922;-65
2021/01/25 05:15:33;;;;;;;;;;;0.00;99.90;;;;;;5012672;28;19921;-65
2021/01/25 05:18:01;;;;;;;;;;;0.10;1.00;;;;;;5012127;28;19921;-65
2021/01/25 05:20:29;;;;;;;;;;;0.00;1.00;;;;;;5012498;28;19967;-66
2021/01/25 05:22:55;;;;;;;;;;;-0.10;1.00;;;;;;5012105;28;19987;-65
2021/01/25 05:25:25;;;;;;;;;;;0.00;1.00;;;;;;5009828;28;19922;-65
2021/01/25 05:27:51;;;;;;;;;;;0.00;46.30;;;;;;5011469;28;19952;-65
2021/01/25 05:30:18;;;;;;;;;;;0.10;6.10;;;;;;5012302;28;19921;-65
2021/01/25 05:32:45;;;;;;;;;;;0.10;41.40;;;;;;5012133;28;19921;-65
2021/01/25 05:35:11;;;;;;;;;;;0.20;1.00;;;;;;5012009;28;19967;-64
2021/01/25 05:37:40;;;;;;;;;;;0.20;1.00;;;;;;5012702;28;19991;-65
2021/01/25 05:40:06;;;;;;;;;;;0.20;1.00;;;;;;5011886;28;19922;-65
2021/01/25 05:42:33;;;;;;;;;;;0.20;1.00;;;;;;5012493;28;19929;-65
2021/01/25 05:45:04;;;;;;;;;;;0.30;1.00;;;;;;5012813;28;19968;-65
2021/01/25 05:47:30;;;;;;;;;;;0.30;1.00;;;;;;5015675;28;19921;-65
2021/01/25 05:49:56;;;;;;;;;;;0.20;1.00;;;;;;5015652;28;19921;-65
2021/01/25 05:52:22;;;;;;;;;;;0.20;1.00;;;;;;5014787;28;19932;-64
2021/01/25 05:54:49;;;;;;;;;;;0.20;1.00;;;;;;5015344;28;19921;-65
2021/01/25 05:57:15;;;;;;;;;;;0.20;1.00;;;;;;5014991;28;19921;-65
2021/01/25 05:59:41;;;;;;;;;;;0.10;1.00;;;;;;5015512;28;19922;-65
2021/01/25 06:02:07;;;;;;;;;;;0.10;19.40;;;;;;5015296;28;19921;-64
2021/01/25 06:04:33;;;;;;;;;;;0.10;49.00;;;;;;5015338;28;19921;-64
2021/01/25 06:07:02;;;;;;;;;;;0.10;89.50;;;;;;5015343;28;20278;-64
2021/01/25 06:09:30;;;;;;;;;;;0.10;99.90;;;;;;5015113;28;19964;-64
2021/01/25 06:12:02;;;;;;;;;;;0.20;99.90;;;;;;5014926;28;19925;-65
2021/01/25 06:14:34;;;;;;;;;;;0.20;90.00;;;;;;5014815;28;20008;-66
2021/01/25 06:17:00;;;;;;;;;;;0.20;99.90;;;;;;5015199;28;19921;-65
2021/01/25 06:19:28;;;;;;;;;;;0.20;99.90;;;;;;5014707;28;20278;-66
2021/01/25 06:21:54;;;;;;;;;;;0.20;91.90;;;;;;5014962;28;19933;-66
2021/01/25 06:24:22;;;;;;;;;;;0.20;23.10;;;;;;5015205;28;20397;-66
2021/01/25 06:26:49;;;;;;;;;;;0.20;61.70;;;;;;5015259;28;20362;-66
2021/01/25 06:29:17;;;;;;;;;;;0.10;1.00;;;;;;5015517;28;19932;-65
2021/01/25 06:31:43;;;;;;;;;;;0.10;33.50;;;;;;5014787;28;19925;-66
2021/01/25 06:34:10;;;;;;;;;;;0.10;62.50;;;;;;5014944;28;19921;-66
2021/01/25 06:36:38;;;;;;;;;;;0.10;99.90;;;;;;5014565;28;19928;-66
2021/01/25 06:39:05;;;;;;;;;;;0.10;99.90;;;;;;5014645;28;19921;-65
2021/01/25 06:41:35;;;;;;;;;;;0.10;99.90;;;;;;5006317;28;19929;-66
2021/01/25 06:44:01;;;;;;;;;;;0.10;99.90;;;;;;4994943;28;19929;-64
2021/01/25 06:46:31;;;;;;;;;;;0.20;99.90;;;;;;4995440;28;20283;-65
2021/01/25 06:48:57;;;;;;;;;;;0.20;99.90;;;;;;4994862;28;19992;-65
2021/01/25 06:51:23;;;;;;;;;;;0.20;99.90;;;;;;4995420;28;19929;-64
2021/01/25 06:53:50;;;;;;;;;;;0.20;99.90;;;;;;4994747;28;19921;-64
2021/01/25 06:56:16;;;;;;;;;;;0.20;99.90;;;;;;4995326;28;19922;-65
2021/01/25 06:58:45;;;;;;;;;;;0.20;99.90;;;;;;4994929;28;19922;-65
2021/01/25 07:01:11;;;;;;;;;;;0.20;99.90;;;;;;4995097;28;19929;-65
2021/01/25 07:03:45;;;;;;;;;;;0.20;1.00;;;;;;4994130;28;19922;-65
2021/01/25 07:06:15;;;;;;;;;;;0.30;1.00;;;;;;4994889;28;20019;-65
2021/01/25 07:08:51;;;;;;;;;;;0.30;1.00;;;;;;4994647;28;19929;-66
2021/01/25 07:11:17;;;;;;;;;;;0.30;1.00;;;;;;4994753;28;19929;-66
2021/01/25 07:13:44;;;;;;;;;;;0.30;1.00;;;;;;4994537;28;20465;-67
2021/01/25 07:16:10;;;;;;;;;;;0.30;1.00;;;;;;4994799;28;19922;-69
2021/01/25 07:18:36;;;;;;;;;;;0.40;1.00;;;;;;4994946;28;19921;-67
2021/01/25 07:21:05;;;;;;;;;;;0.40;1.00;;;;;;4995111;28;19925;-65
2021/01/25 07:23:31;;;;;;;;;;;0.40;1.00;;;;;;4994504;28;19921;-65
2021/01/25 07:25:58;;;;;;;;;;;0.30;1.00;;;;;;4994839;28;19929;-65
2021/01/25 07:28:24;;;;;;;;;;;0.40;1.00;;;;;;4994433;28;20406;-66
2021/01/25 07:30:51;;;;;;;;;;;0.40;1.00;;;;;;4994539;28;19932;-65
2021/01/25 07:33:17;;;;;;;;;;;0.40;1.00;;;;;;4994476;28;19929;-65
2021/01/25 07:35:43;;;;;;;;;;;0.50;1.00;;;;;;4994933;28;19926;-66
2021/01/25 07:38:10;;;;;;;;;;;0.50;1.00;;;;;;4994389;28;19921;-65
2021/01/25 07:40:36;;;;;;;;;;;0.50;1.00;;;;;;4993990;28;19976;-65
2021/01/25 07:43:03;;;;;;;;;;;0.50;1.00;;;;;;4994444;28;19929;-64
2021/01/25 07:45:30;;;;;;;;;;;0.60;1.00;;;;;;4993995;28;19931;-64
2021/01/25 07:47:56;;;;;;;;;;;0.50;1.00;;;;;;4994554;28;19926;-66
2021/01/25 07:50:22;;;;;;;;;;;0.50;99.90;;;;;;4995154;28;19926;-65
2021/01/25 07:52:56;;;;;;;;;;;0.50;1.00;;;;;;5004807;28;19952;-64
2021/01/25 07:55:23;;;;;;;;;;;0.50;1.00;;;;;;5014412;28;19922;-64
2021/01/25 07:57:49;;;;;;;;;;;0.50;1.00;;;;;;5013384;28;19972;-64
2021/01/25 08:00:16;;;;;;;;;;;0.50;1.00;;;;;;5013694;28;19925;-64
2021/01/25 08:02:42;;;;;;;;;;;0.50;1.00;;;;;;5013395;28;19921;-64
2021/01/25 08:05:11;;;;;;;;;;;0.60;1.00;;;;;;5014654;28;19927;-64
2021/01/25 08:07:38;;;;;;;;;;;0.60;1.00;;;;;;5022526;28;19921;-64
2021/01/25 08:10:04;;;;;;;;;;;0.60;1.00;;;;;;5018687;28;19976;-64
2021/01/25 08:12:31;;;;;;;;;;;0.60;1.00;;;;;;5013762;28;19925;-64
2021/01/25 08:15:04;;;;;;;;;;;0.60;1.00;;;;;;5016321;28;19921;-64
2021/01/25 08:17:32;;;;;;;;;;;0.60;1.00;;;;;;5013734;28;19928;-64
2021/01/25 08:20:01;;;;;;;;;;;0.70;1.00;;;;;;5013669;28;19925;-63
2021/01/25 08:22:31;;;;;;;;;;;0.80;1.00;;;;;;5013426;28;20299;-64
2021/01/25 08:24:58;;;;;;;;;;;0.80;99.90;;;;;;5013538;28;19922;-64
2021/01/25 08:27:24;;;;;;;;;;;0.80;99.90;;;;;;5013277;28;20454;-64
2021/01/25 08:30:02;;;;;;;;;;;0.70;99.90;;;;;;5013362;28;19921;-64
2021/01/25 08:32:31;;;;;;;;;;;0.80;99.90;;;;;;5012975;28;20278;-64
2021/01/25 08:34:58;;;;;;;;;;;0.70;99.90;;;;;;5013326;28;20356;-64
2021/01/25 08:37:26;;;;;;;;;;;0.70;99.90;;;;;;5013074;28;19983;-64
2021/01/25 08:39:52;;;;;;;;;;;0.80;99.90;;;;;;5012872;28;19936;-64
2021/01/25 08:42:19;;;;;;;;;;;0.80;99.90;;;;;;5012949;28;19921;-64
2021/01/25 08:44:46;;;;;;;;;;;0.90;99.90;;;;;;5012666;28;19933;-68
2021/01/25 08:47:14;;;;;;;;;;;0.90;12.40;;;;;;5012938;28;19921;-65
2021/01/25 08:49:42;;;;;;;;;;;1.00;1.00;;;;;;5012366;28;20024;-65
2021/01/25 08:52:09;;;;;;;;;;;1.00;1.00;;;;;;5012545;28;20039;-63
2021/01/25 08:54:36;;;;;;;;;;;1.10;1.00;;;;;;5012960;28;19932;-65
2021/01/25 08:57:13;;;;;;;;;;;1.00;99.90;;;;;;5014667;28;20402;-64
2021/01/25 08:59:39;;;;;;;;;;;1.00;99.90;;;;;;5012631;28;20509;-66
2021/01/25 09:02:09;;;;;;;;;;;1.00;99.90;;;;;;5012355;28;19921;-65
2021/01/25 09:04:35;;;;;;;;;;;1.20;99.90;;;;;;5012760;28;19926;-66
2021/01/25 09:07:01;;;;;;;;;;;1.20;99.90;;;;;;5013228;28;19929;-65
2021/01/25 09:09:27;;;;;;;;;;;1.30;55.90;;;;;;5012552;28;19921;-67
2021/01/25 09:11:53;;;;;;;;;;;1.30;1.00;;;;;;5012189;28;20382;-65
2021/01/25 09:14:21;;;;;;;;;;;1.40;1.00;;;;;;5013566;28;19921;-62
2021/01/25 09:16:47;;;;;;;;;;;1.40;99.90;;;;;;5014088;28;19921;-64
2021/01/25 09:19:15;;;;;;;;;;;1.40;99.90;;;;;;5020454;28;19929;-64
2021/01/25 09:21:41;;;;;;;;;;;1.40;99.90;;;;;;5018901;28;19961;-64
2021/01/25 09:24:08;;;;;;;;;;;1.50;6.00;;;;;;5017158;28;19921;-68
2021/01/25 09:26:35;;;;;;;;;;;1.50;1.00;;;;;;5017399;28;19925;-69
2021/01/25 09:29:01;;;;;;;;;;;1.50;1.00;;;;;;5016336;28;19927;-66
2021/01/25 09:31:28;;;;;;;;;;;1.50;99.90;;;;;;5015992;28;19921;-64
2021/01/25 09:33:54;;;;;;;;;;;1.50;1.00;;;;;;5016592;28;19974;-63
2021/01/25 09:36:20;;;;;;;;;;;1.60;94.50;;;;;;5016184;28;19921;-66
2021/01/25 09:38:46;;;;;;;;;;;1.60;99.90;;;;;;5016260;28;19929;-68
2021/01/25 09:41:13;;;;;;;;;;;1.70;1.00;;;;;;5016290;28;19921;-65
2021/01/25 09:43:39;;;;;;;;;;;1.80;1.00;;;;;;5016014;28;20333;-66
2021/01/25 09:46:05;;;;;;;;;;;1.80;1.00;;;;;;5015987;28;19929;-64
2021/01/25 09:48:31;;;;;;;;;;;1.90;99.90;;;;;;5015828;28;20348;-65
2021/01/25 09:50:57;;;;;;;;;;;1.90;99.90;;;;;;5016326;28;19921;-64
2021/01/25 09:53:23;;;;;;;;;;;2.00;99.90;;;;;;5015708;28;19921;-63
2021/01/25 09:55:50;;;;;;;;;;;1.90;99.90;;;;;;5016105;28;19945;-64
2021/01/25 09:58:17;;;;;;;;;;;2.00;99.90;;;;;;5016624;28;19964;-66
2021/01/25 10:00:43;;;;;;;;;;;2.00;1.00;;;;;;5015618;28;20040;-65
2021/01/25 10:03:09;;;;;;;;;;;2.00;1.00;;;;;;5016008;28;19928;-66
2021/01/25 10:05:35;;;;;;;;;;;2.10;1.00;;;;;;5015782;28;19930;-67
2021/01/25 10:08:01;;;;;;;;;;;2.10;1.00;;;;;;5015706;28;19972;-66
2021/01/25 10:10:28;;;;;;;;;;;2.00;99.90;;;;;;5015902;28;19936;-67
2021/01/25 10:12:54;;;;;;;;;;;2.00;1.00;;;;;;5015774;28;19932;-64
2021/01/25 10:15:22;;;;;;;;;;;2.00;1.00;;;;;;5015669;28;19971;-65
2021/01/25 10:17:48;;;;;;;;;;;2.00;99.90;;;;;;5015346;28;19925;-64
2021/01/25 10:20:15;;;;;;;;;;;2.10;99.90;;;;;;5016233;28;19921;-65
2021/01/25 10:22:41;;;;;;;;;;;2.10;99.90;;;;;;5016532;28;19921;-65
2021/01/25 10:25:07;;;;;;;;;;;2.10;99.90;;;;;;5016841;28;19922;-66
2021/01/25 10:27:34;;;;;;;;;;;2.10;99.90;;;;;;5016462;28;19968;-66
2021/01/25 10:30:00;;;;;;;;;;;2.30;99.90;;;;;;5014404;28;20600;-65
2021/01/25 10:32:27;;;;;;;;;;;2.30;99.90;;;;;;5014598;28;19926;-67
2021/01/25 10:34:54;;;;;;;;;;;2.50;99.90;;;;;;5015434;28;19925;-67
2021/01/25 10:37:20;;;;;;;;;;;2.60;99.90;;;;;;5016096;28;20445;-67
2021/01/25 10:39:46;;;;;;;;;;;2.70;99.90;;;;;;5015164;28;19929;-66
2021/01/25 10:42:12;;;;;;;;;;;2.70;99.90;;;;;;5015418;28;19952;-67
2021/01/25 10:44:38;;;;;;;;;;;2.70;96.30;;;;;;5017211;28;19921;-67
2021/01/25 10:47:04;;;;;;;;;;;2.90;86.90;;;;;;5015918;28;19928;-67
2021/01/25 10:49:31;;;;;;;;;;;3.00;54.80;;;;;;5015090;28;19921;-68
2021/01/25 10:51:57;;;;;;;;;;;3.20;57.70;;;;;;5015286;28;19921;-66
2021/01/25 10:54:24;;;;;;;;;;;3.30;19.80;;;;;;5016987;28;20385;-66
2021/01/25 10:56:52;;;;;;;;;;;3.50;1.00;;;;;;5015474;28;19921;-66
2021/01/25 10:59:18;;;;;;;;;;;3.50;1.00;;;;;;5015333;28;19979;-66
2021/01/25 11:01:44;;;;;;;;;;;3.80;15.40;;;;;;5014512;28;19968;-67
2021/01/25 11:04:10;;;;;;;;;;;4.00;1.00;;;;;;5014977;28;19921;-66
2021/01/25 11:06:37;;;;;;;;;;;4.00;1.00;;;;;;5015396;28;19929;-66
2021/01/25 11:09:04;;;;;;;;;;;4.10;1.00;;;;;;5014660;28;19928;-65
2021/01/25 11:11:30;;;;;;;;;;;4.10;1.00;;;;;;5014356;28;19921;-68
2021/01/25 11:13:56;;;;;;;;;;;3.90;1.00;;;;;;5014824;28;19932;-64
2021/01/25 11:16:22;;;;;;;;;;;4.00;1.00;;;;;;5015014;28;19925;-63
2021/01/25 11:18:48;;;;;;;;;;;4.00;1.00;;;;;;5014330;28;20444;-62
2021/01/25 11:21:14;;;;;;;;;;;4.00;1.00;;;;;;5014899;28;19925;-64
2021/01/25 11:23:41;;;;;;;;;;;4.00;1.00;;;;;;5014294;28;19922;-63
2021/01/25 11:26:07;;;;;;;;;;;4.00;1.00;;;;;;5013660;28;20008;-67
2021/01/25 11:28:33;;;;;;;;;;;4.00;1.00;;;;;;5014040;28;20290;-63
2021/01/25 11:30:59;;;;;;;;;;;4.10;1.00;;;;;;5014645;28;19921;-64
2021/01/25 11:33:25;;;;;;;;;;;4.10;1.00;;;;;;5016338;28;19932;-63
2021/01/25 11:35:52;;;;;;;;;;;4.00;1.00;;;;;;5018009;28;20000;-64
2021/01/25 11:38:18;;;;;;;;;;;3.50;1.00;;;;;;5015983;28;19945;-64
2021/01/25 11:40:44;;;;;;;;;;;3.30;1.00;;;;;;5019007;28;19921;-63
2021/01/25 11:43:10;;;;;;;;;;;3.40;1.00;;;;;;5016286;28;19925;-63
2021/01/25 11:45:38;;;;;;;;;;;3.40;1.00;;;;;;5017564;28;20388;-62
2021/01/25 11:48:05;;;;;;;;;;;3.60;1.00;;;;;;5016488;28;19921;-64
2021/01/25 11:50:31;;;;;;;;;;;3.90;1.00;;;;;;5017173;28;19988;-64
2021/01/25 11:52:57;;;;;;;;;;;4.10;1.00;;;;;;5018426;28;20025;-67
2021/01/25 11:55:24;;;;;;;;;;;4.10;1.00;;;;;;5018833;28;19922;-65
2021/01/25 11:57:51;;;;;;;;;;;3.90;1.00;;;;;;5017473;28;19928;-64
2021/01/25 12:00:17;;;;;;;;;;;3.70;1.00;;;;;;5015727;28;19921;-64
2021/01/25 12:02:44;;;;;;;;;;;3.80;1.00;;;;;;5016077;28;19934;-62
2021/01/25 12:05:17;;;;;;;;;;;4.10;1.00;;;;;;5136163;27;19911;-66
2021/01/25 12:07:44;;;;;;;;;;;4.30;1.00;;;;;;5134072;27;19930;-66
2021/01/25 12:10:11;;;;;;;;;;;4.50;1.00;;;;;;5134308;27;19927;-67
2021/01/25 12:12:37;;;;;;;;;;;4.40;1.00;;;;;;5133907;27;19927;-65
2021/01/25 12:15:03;;;;;;;;;;;4.40;1.00;;;;;;5130422;27;19924;-65
2021/01/25 12:17:29;;;;;;;;;;;4.40;1.00;;;;;;5130148;27;19928;-67
2021/01/25 12:19:55;;;;;;;;;;;4.50;1.00;;;;;;5129901;27;20372;-67
2021/01/25 12:22:22;;;;;;;;;;;4.70;1.00;;;;;;5130246;27;19951;-66
2021/01/25 12:24:48;;;;;;;;;;;4.70;1.00;;;;;;5130823;27;20004;-67
2021/01/25 12:27:14;;;;;;;;;;;4.90;1.00;;;;;;5131320;27;20497;-64
2021/01/25 12:29:40;;;;;;;;;;;4.90;1.00;;;;;;5132509;27;19928;-64
2021/01/25 12:32:06;;;;;;;;;;;4.90;1.00;;;;;;5132724;27;19932;-65
2021/01/25 12:34:33;;;;;;;;;;;4.80;1.00;;;;;;5132799;27;19924;-65
2021/01/25 12:36:59;;;;;;;;;;;4.70;1.00;;;;;;5131348;27;20320;-66
2021/01/25 12:39:25;;;;;;;;;;;4.40;1.00;;;;;;5131746;27;20329;-67
2021/01/25 12:41:52;;;;;;;;;;;4.30;1.00;;;;;;5130653;27;20281;-66
2021/01/25 12:44:18;;;;;;;;;;;4.00;1.00;;;;;;5130654;27;19927;-65
2021/01/25 12:46:44;;;;;;;;;;;3.70;1.00;;;;;;5131840;27;19962;-64
2021/01/25 12:49:11;;;;;;;;;;;3.70;1.00;;;;;;5130821;27;19931;-66
2021/01/25 12:51:37;;;;;;;;;;;3.70;1.00;;;;;;5132814;27;20431;-68
2021/01/25 12:54:06;;;;;;;;;;;3.80;1.00;;;;;;5139253;27;20345;-66
2021/01/25 12:56:34;;;;;;;;;;;3.80;1.00;;;;;;5135124;27;19930;-64
2021/01/25 12:59:00;;;;;;;;;;;3.80;1.00;;;;;;5132015;27;19923;-65
2021/01/25 13:01:26;;;;;;;;;;;3.70;1.00;;;;;;5129993;27;20014;-65
2021/01/25 13:03:53;;;;;;;;;;;3.70;1.00;;;;;;5129597;27;19958;-66
2021/01/25 13:06:19;;;;;;;;;;;3.70;1.00;;;;;;5129625;27;19980;-65
2021/01/25 13:08:45;;;;;;;;;;;3.80;1.00;;;;;;5129482;27;19924;-65
2021/01/25 13:11:11;;;;;;;;;;;3.90;1.00;;;;;;5129500;27;19924;-65
2021/01/25 13:13:38;;;;;;;;;;;3.90;1.00;;;;;;5129176;27;19938;-66
2021/01/25 13:16:04;;;;;;;;;;;4.00;1.00;;;;;;5119373;27;19969;-65
2021/01/25 13:18:30;;;;;;;;;;;4.00;1.00;;;;;;5115410;28;19927;-64
2021/01/25 13:20:56;;;;;;;;;;;3.80;1.00;;;;;;5115659;27;19927;-65
2021/01/25 13:23:22;;;;;;;;;;;4.00;1.00;;;;;;5115320;28;19924;-65
2021/01/25 13:25:49;;;;;;;;;;;4.50;47.50;;;;;;5115508;28;20000;-62
2021/01/25 13:28:15;;;;;;;;;;;4.90;1.00;;;;;;5118107;28;19968;-64
2021/01/25 13:30:42;;;;;;;;;;;4.70;1.00;;;;;;5119227;28;19969;-63
2021/01/25 13:33:08;;;;;;;;;;;4.50;1.00;;;;;;5122470;28;20373;-63
2021/01/25 13:35:34;;;;;;;;;;;4.40;1.00;;;;;;5119650;28;19928;-62
2021/01/25 13:38:00;;;;;;;;;;;4.40;1.00;;;;;;5115099;28;20292;-63
2021/01/25 13:40:27;;;;;;;;;;;4.40;1.00;;;;;;5115708;28;19924;-63
2021/01/25 13:42:53;;;;;;;;;;;4.40;99.90;;;;;;5115406;28;19969;-64
2021/01/25 13:45:21;;;;;;;;;;;4.30;99.90;;;;;;5115987;28;19991;-64
2021/01/25 13:47:48;;;;;;;;;;;4.20;99.90;;;;;;5115756;28;19931;-63
2021/01/25 13:50:15;;;;;;;;;;;4.10;99.90;;;;;;5115979;28;19927;-63
2021/01/25 13:52:41;;;;;;;;;;;4.10;99.90;;;;;;5115708;28;19977;-64
2021/01/25 13:55:08;;;;;;;;;;;4.00;99.90;;;;;;5116271;28;19924;-64
2021/01/25 13:57:34;;;;;;;;;;;3.90;99.90;;;;;;5116178;28;19924;-63
2021/01/25 14:00:00;;;;;;;;;;;3.90;99.90;;;;;;5116196;27;19924;-64
2021/01/25 14:02:26;;;;;;;;;;;3.90;99.90;;;;;;5114744;28;19978;-65
2021/01/25 14:04:53;;;;;;;;;;;3.90;99.90;;;;;;5115474;28;19977;-65
2021/01/25 14:07:19;;;;;;;;;;;3.90;99.90;;;;;;5115597;28;19928;-65
2021/01/25 14:09:45;;;;;;;;;;;3.90;99.90;;;;;;5115347;28;19932;-65
2021/01/25 14:12:11;;;;;;;;;;;3.80;99.90;;;;;;5114622;28;20376;-65
2021/01/25 14:14:37;;;;;;;;;;;3.80;99.90;;;;;;5114727;28;19977;-65
2021/01/25 14:17:03;;;;;;;;;;;3.70;99.90;;;;;;5114334;28;19928;-63
2021/01/25 14:19:29;;;;;;;;;;;3.60;99.90;;;;;;5114647;28;19938;-64
2021/01/25 14:21:56;;;;;;;;;;;3.60;99.90;;;;;;5114499;27;19923;-63
2021/01/25 14:24:23;;;;;;;;;;;3.50;99.90;;;;;;5114516;28;19993;-63
2021/01/25 14:26:49;;;;;;;;;;;3.50;99.90;;;;;;5113996;28;19935;-64
2021/01/25 14:29:15;;;;;;;;;;;3.40;99.90;;;;;;5119155;28;19923;-64
2021/01/25 14:31:41;;;;;;;;;;;3.40;99.90;;;;;;5126906;28;19928;-65
2021/01/25 14:34:07;;;;;;;;;;;3.30;99.90;;;;;;5123637;28;19959;-65